Weather observations for the past three days for
Halifax-Northampton Regional Airport
Metric (Imperial)
Date Time (edt) Wind (kph) Vis. (km) Weather Sky Cond. Temperature (ºC) Relative Humidity Wind Chill (°C) Heat Index (°C) Pressure Precipitation (cm)
Air Dwpt 6 hour altimeter (cm) sea level (mb) 1 hr 3 hr 6 hr
Max. Min.
04 10:35 SW 11 16.09 Fair CLR 30 26 79% 37 76.15 0.0
04 10:15 SW 9 16.09 Fair CLR 29 26 84% 36 76.15 0.0
04 09:55 SW 15 16.09 Fair CLR 28 27 94% 35 76.15 0.0
04 09:35 SW 13 16.09 Fair CLR 27 26 94% 31 76.15 0.0
04 09:15 SW 13 16.09 Fair CLR 27 26 94% 31 76.15 0.0
04 08:55 SW 11 16.09 Fair CLR 26 26 100% 28 76.17 0.0
04 08:35 SW 11 16.09 Fair CLR 25 25 100% 25 76.17 0.0
04 08:15 SW 11 16.09 Fair CLR 24 24 100% 23 76.17 0.0
04 07:55 SW 9 16.09 Fair CLR 23 23 100% 76.17 0.0
04 07:35 SW 11 16.09 Fair CLR 23 23 100% 76.17 0.0
04 07:15 SW 9 16.09 Fair CLR 23 23 100% 76.17 0.0
04 06:55 SW 9 16.09 Fair CLR 23 23 100% 76.15 0.0
04 06:35 SW 7 16.09 Fair CLR 23 23 100% 76.15 0.0
04 06:15 SW 11 16.09 Fair CLR 23 23 100% 76.15 0.0
04 05:55 SW 7 16.09 Fair CLR 23 23 100% 76.15 0.0
04 05:35 SW 9 16.09 Fair CLR 23 23 100% 76.15 0.0
04 05:15 SW 11 16.09 Fair CLR 23 23 100% 76.15 0.0
04 04:55 SW 9 16.09 Fair CLR 23 23 100% 76.12 0.0
04 04:35 SW 9 16.09 Fair CLR 23 23 100% 76.12 0.0
04 04:15 SW 11 16.09 Fair CLR 24 24 100% 23 76.12 0.0
04 03:55 SW 9 16.09 Fair CLR 24 24 100% 23 76.12 0.0
04 03:35 SW 7 16.09 Fair CLR 25 25 100% 25 76.12 0.0
04 03:15 SW 11 16.09 Fair CLR 25 25 100% 25 76.1 0.0
04 02:55 SW 13 16.09 Fair CLR 25 25 100% 25 76.12 0.0
04 02:35 SW 15 16.09 Fair CLR 25 25 100% 25 76.15 0.0
04 02:15 SW 11 16.09 Fair CLR 25 25 100% 25 76.15 0.0
04 01:55 SW 11 16.09 Fair CLR 25 25 100% 25 76.17 0.0
04 01:35 SW 11 16.09 Fair CLR 26 26 100% 28 76.2 0.0
04 01:15 SW 11 16.09 Fair CLR 26 26 100% 28 76.23 0.0
04 00:55 SW 9 16.09 Fair CLR 26 26 100% 28 76.23 0.0
04 00:35 SW 9 16.09 Fair CLR 26 26 100% 28 76.2 0.0
04 00:15 SW 11 16.09 Fair CLR 26 26 100% 28 76.2 0.0
03 23:55 S 9 16.09 Fair CLR 26 26 100% 28 76.2 0.0
03 23:35 S 11 16.09 Fair CLR 26 26 100% 28 76.2 0.0
03 23:15 S 9 16.09 Fair CLR 26 26 100% 28 76.2 0.0
03 22:55 S 9 16.09 Fair CLR 27 26 94% 31 76.2 0.0
03 22:35 S 7 16.09 Partly Cloudy SCT070 26 26 100% 28 76.2 0.0
03 22:15 SW 6 16.09 Mostly Cloudy BKN070 27 26 94% 31 76.2 0.0
03 21:55 Calm 16.09 Mostly Cloudy BKN070 26 26 100% 28 76.2 0.0
03 21:35 Calm 16.09 Partly Cloudy SCT070 26 26 100% 28 76.2 0.0
03 21:15 Calm 16.09 Fair CLR 26 26 100% 28 76.17 0.0
03 20:55 Calm 16.09 Fair CLR 27 26 94% 31 76.15 0.0
03 20:35 Calm 16.09 Fair CLR 27 26 94% 31 76.1 0.0
03 20:15 Calm 16.09 Fair CLR 28 26 89% 34 76.1 0.0
03 19:55 SW 6 16.09 Fair CLR 28 26 89% 34 76.07 0.0
03 19:35 S 6 16.09 Fair CLR 29 26 84% 36 76.07 0.0
03 19:15 Calm 16.09 Partly Cloudy SCT080 30 27 84% 39 76.07 0.0
03 18:55 Calm 16.09 Partly Cloudy SCT080 31 27 79% 41 76.05 0.0
03 18:35 Calm 16.09 Fair CLR 31 28 84% 42 76.07 0.0
03 18:15 Calm 16.09 Fair CLR 32 28 79% 44 76.07 0.0
03 17:55 SW 7 16.09 Fair CLR 33 26 67% 42 76.07 0.0
03 17:35 SW 9 16.09 Fair CLR 35 25 56% 43 76.07 0.0
03 17:15 SW 9 16.09 Partly Cloudy SCT095 35 25 56% 43 76.07 0.0
03 16:55 SW 7 16.09 Fair CLR 35 26 60% 45 76.1 0.0
03 16:35 SW 9 16.09 Fair CLR 35 26 60% 45 76.1 0.0
03 16:15 SW 9 16.09 Partly Cloudy SCT100 35 25 56% 43 76.12 0.0
03 15:55 SW 9 16.09 Partly Cloudy SCT100 35 26 60% 45 76.15 0.0
03 15:35 Calm 16.09 Fair CLR 35 26 60% 45 76.17 0.0
03 15:15 S 6 16.09 Fair CLR 35 26 60% 45 76.17 0.0
03 14:55 S 7 16.09 Fair CLR 35 26 60% 45 76.17 0.0
03 14:35 S 9 16.09 Fair CLR 35 26 60% 45 76.2 0.0
03 14:15 S 7 16.09 Fair CLR 34 26 63% 43 76.23 0.0
03 13:55 S 9 16.09 Fair CLR 34 26 63% 43 76.23 0.0
03 13:35 S 11 16.09 Fair CLR 33 27 71% 44 76.23 0.0
03 13:15 SW 7 16.09 Fair CLR 33 27 71% 44 76.28 0.0
03 12:55 SW 7 16.09 Fair CLR 33 27 71% 44 76.3 0.0
03 12:35 S 9 16.09 Fair CLR 32 27 75% 42 76.3 0.0
03 12:15 SW 7 16.09 Fair CLR 32 27 75% 42 76.3 0.0
03 11:55 SW 6 16.09 Fair CLR 31 27 79% 41 76.33 0.0
03 11:35 Calm 16.09 Fair CLR 30 28 89% 40 76.33 0.0
03 11:15 SW 6 16.09 Fair CLR 29 27 89% 37 76.33 0.0
03 10:55 Calm 16.09 Fair CLR 28 27 94% 35 76.33 0.0
03 10:35 Calm 16.09 Fair CLR 27 27 100% 32 76.33 0.0
03 10:15 W 7 16.09 Fair CLR 27 27 100% 32 76.33 0.0
03 09:55 Calm 16.09 Fair CLR 26 26 100% 28 76.33 0.0
03 09:35 Calm 16.09 Fair CLR 25 25 100% 25 76.33 0.0
03 09:15 Calm 16.09 Fair CLR 24 24 100% 23 76.33 0.0
03 08:55 Calm 16.09 Fair CLR 23 23 100% 76.33 0.0
03 08:35 Calm 16.09 Fair CLR 22 22 100% 76.33 0.0
03 08:15 Calm 16.09 Fair CLR 21 21 100% 76.35 0.0
03 07:55 Calm 11.27 Fair CLR 21 21 100% 76.33 0.0
03 07:35 Calm 11.27 Fair CLR 20 20 100% 76.3 0.0
03 07:15 Calm 11.27 Fair CLR 20 20 100% 76.3 0.0
03 06:55 Calm 4.02 Fog/Mist CLR 20 20 100% 76.28 0.0
03 06:35 Calm 4.83 Fog/Mist CLR 20 20 100% 76.28 0.0
03 06:15 Calm 2.01 Fog/Mist VV007 20 20 100% 76.28 0.0
03 05:55 Calm 4.02 Fog/Mist CLR 20 20 100% 76.28 0.0
03 05:35 Calm 4.02 Fog/Mist CLR 20 20 100% 76.28 0.0
03 05:15 Calm 6.44 Fog/Mist CLR 20 20 100% 76.28 0.0
03 04:55 Calm 8.05 Fog/Mist CLR 20 20 100% 76.25 0.0
03 04:35 Calm 8.05 Fog/Mist CLR 20 20 100% 76.25 0.0
03 04:15 Calm 4.83 Fog/Mist CLR 20 20 100% 76.25 0.0
03 03:55 Calm 8.05 Fog/Mist CLR 20 20 100% 76.25 0.0
03 03:35 Calm 3.22 Fog/Mist CLR 21 21 100% 76.23 0.0
03 03:15 Calm 3.22 Fog/Mist CLR 20 20 100% 76.25 0.0
03 02:55 Calm 3.22 Fog/Mist CLR 21 21 100% 76.25 0.0
03 02:35 Calm 11.27 Fair CLR 21 21 100% 76.25 0.0
03 02:15 Calm 4.02 Fog/Mist CLR 20 20 100% 76.25 0.0
03 01:55 Calm 6.44 Fog/Mist CLR 20 20 100% 76.25 0.0
03 01:35 Calm 2.82 Fog/Mist VV007 21 21 100% 76.25 0.0
03 01:15 Calm 4.83 Fog/Mist CLR 21 21 100% 76.28 0.0
03 00:55 Calm 6.44 Fog/Mist CLR 21 21 100% 76.25 0.0
03 00:35 Calm 6.44 Fog/Mist CLR 21 21 100% 76.25 0.0
03 00:15 Calm 11.27 Fair CLR 21 21 100% 76.28 0.0
02 23:55 Calm 16.09 Fair CLR 21 21 100% 76.28 0.0
02 23:35 Calm 11.27 Fair CLR 21 21 100% 76.28 0.0
02 23:15 Calm 8.05 Fog/Mist CLR 21 21 100% 76.3 0.0
02 22:55 Calm 11.27 Fair CLR 21 21 100% 76.3 0.0
02 22:35 Calm 6.44 Fog/Mist CLR 21 21 100% 76.3 0.0
02 22:15 Calm 16.09 Fair CLR 22 22 100% 76.3 0.0
02 21:55 SW 9 16.09 Fair CLR 22 22 100% 76.35 0.0
02 21:35 S 6 11.27 Fair CLR 22 22 100% 76.33 0.0
02 21:15 Calm 16.09 Fair CLR 22 22 100% 76.33 0.0
02 20:55 Calm 16.09 NULL NULL 22 22 100% 76.3 0.0
02 19:15 N 33 G 59 16.09 Light Rain and Breezy SCT046 BKN060 OVC120 25 23 89% 26 76.35 0.0
02 18:55 Calm 16.09 Overcast SCT043 BKN060 OVC110 27 26 94% 31 76.28 0.0
02 18:35 N 7 16.09 Light Rain SCT037 SCT050 OVC095 31 27 79% 41 76.23 0.0
02 18:15 Calm 16.09 Mostly Cloudy SCT090 BKN110 32 25 67% 39 76.23 0.0
02 17:55 E 6 16.09 Partly Cloudy SCT110 33 26 67% 42 76.23 0.0
02 17:35 E 6 16.09 Partly Cloudy SCT075 SCT090 SCT110 33 25 63% 41 76.2 0.0
02 17:15 Calm 16.09 Partly Cloudy SCT075 SCT090 33 26 67% 42 76.2 0.0
02 16:55 Calm 16.09 Partly Cloudy SCT070 SCT080 33 25 63% 41 76.2 0.0
02 16:35 SE 9 16.09 Partly Cloudy SCT080 35 25 56% 43 76.2 0.0
02 16:15 Calm 16.09 Partly Cloudy SCT070 34 25 59% 42 76.23 0.0
02 15:55 E 7 16.09 Mostly Cloudy BKN075 BKN090 35 25 56% 43 76.23 0.0
02 15:35 NW 9 16.09 Partly Cloudy SCT095 35 25 56% 43 76.25 0.0
02 15:15 Calm 16.09 Mostly Cloudy SCT085 BKN095 35 25 56% 43 76.28 0.0
02 14:55 Calm 16.09 Overcast BKN065 OVC085 33 25 63% 41 76.28 0.0
02 14:35 NE 7 16.09 Mostly Cloudy SCT065 BKN085 35 25 56% 43 76.28 0.0
02 14:15 NW 9 16.09 Partly Cloudy SCT065 SCT085 35 25 56% 43 76.28 0.0
02 13:55 Calm 16.09 Mostly Cloudy BKN065 35 25 56% 43 76.28 0.0
02 13:35 Calm 16.09 Fair CLR 35 25 56% 43 76.28 0.0
02 13:15 E 7 16.09 Partly Cloudy SCT055 34 25 59% 42 76.28 0.0
02 12:55 N 15 16.09 Partly Cloudy SCT055 34 25 59% 42 76.3 0.0
02 12:35 NE 6 16.09 Partly Cloudy SCT055 33 25 63% 41 76.33 0.0
02 12:15 E 15 16.09 Fair CLR 33 25 63% 41 76.35 0.0
02 11:55 E 11 16.09 Fair CLR 33 25 63% 41 76.35 0.0
02 11:35 NE 15 16.09 Fair CLR 32 25 67% 39 76.35 0.0
02 11:15 NE 6 16.09 Fair CLR 32 25 67% 39 76.35 0.0
02 10:55 NE 6 16.09 Fair CLR 32 25 67% 39 76.35 0.0
02 10:35 N 7 16.09 Fair CLR 31 25 70% 38 76.35 0.0
02 10:15 N 13 16.09 Fair CLR 30 25 75% 36 76.33 0.0
02 09:55 N 6 16.09 Fair CLR 30 25 75% 36 76.33 0.0
02 09:35 Calm 16.09 Fair CLR 28 25 84% 33 76.33 0.0
02 09:15 N 6 16.09 Fair CLR 27 25 89% 31 76.35 0.0
02 08:55 NW 6 16.09 Fair CLR 26 25 94% 28 76.35 0.0
02 08:35 Calm 16.09 Fair CLR 25 25 100% 25 76.35 0.0
02 08:15 Calm 16.09 Fair CLR 24 24 100% 23 76.35 0.0
02 07:55 SW 6 16.09 Fair CLR 23 23 100% 76.33 0.0
02 07:35 Calm 16.09 Fair CLR 22 22 100% 76.33 0.0
02 07:15 SW 6 11.27 Fair CLR 21 21 100% 76.3 0.0
02 06:55 Calm 11.27 Fair CLR 21 21 100% 76.3 0.0
02 06:35 Calm 16.09 Fair CLR 22 22 100% 76.3 0.0
02 06:15 SW 6 16.09 Fair CLR 22 22 100% 76.3 0.0
02 05:55 Calm 16.09 Fair CLR 22 22 100% 76.3 0.0
02 05:35 Calm 16.09 Fair CLR 22 22 100% 76.28 0.0
02 05:15 Calm 16.09 Fair CLR 22 22 100% 76.28 0.0
02 04:55 Calm 16.09 Fair CLR 22 22 100% 76.28 0.0
02 04:35 Calm 16.09 Fair CLR 22 22 100% 76.25 0.0
02 04:15 SW 6 16.09 Fair CLR 22 22 100% 76.25 0.0
02 03:55 SW 6 16.09 Fair CLR 22 22 100% 76.25 0.0
02 03:35 SW 6 16.09 Fair CLR 22 22 100% 76.25 0.0
02 03:15 Calm 16.09 Fair CLR 23 23 100% 76.28 0.0
02 02:55 SW 6 16.09 Fair CLR 23 23 100% 76.28 0.0
02 02:35 SW 6 16.09 Fair CLR 23 23 100% 76.28 0.0
02 02:15 SW 7 16.09 Fair CLR 23 23 100% 76.28 0.0
02 01:55 S 6 16.09 Fair CLR 23 23 100% 76.3 0.0
02 01:35 Calm 16.09 Fair CLR 24 24 100% 23 76.3 0.0
02 01:15 S 6 16.09 Fair CLR 24 24 100% 23 76.28 0.0
02 00:55 S 6 16.09 Fair CLR 24 24 100% 23 76.28 0.0
02 00:35 S 6 16.09 Fair CLR 24 24 100% 23 76.25 0.0
02 00:15 S 7 16.09 Fair CLR 24 24 100% 23 76.23 0.0
01 23:55 S 7 16.09 Fair CLR 24 24 100% 23 76.25 0.0
01 23:35 Calm 16.09 Fair CLR 24 24 100% 23 76.23 0.0
01 22:55 Calm 16.09 Fair CLR 25 25 100% 25 76.23 0.0
01 22:35 Calm 16.09 Fair CLR 25 25 100% 25 76.23 0.0
01 22:15 Calm 16.09 Fair CLR 25 25 100% 25 76.2 0.0
01 21:55 Calm 16.09 Fair CLR 26 26 100% 28 76.2 0.0
01 21:35 Calm 16.09 Fair CLR 26 25 94% 28 76.17 0.0
01 21:15 Calm 16.09 Fair CLR 26 25 94% 28 76.17 0.0
01 20:55 Calm 16.09 Fair CLR 26 25 94% 28 76.15 0.0
01 20:35 Calm 16.09 Fair CLR 27 25 89% 31 76.15 0.0
01 20:15 SE 6 16.09 Fair CLR 28 25 84% 33 76.15 0.0
01 19:55 S 7 16.09 Fair CLR 28 25 84% 33 76.17 0.0
01 19:35 Calm 16.09 Fair CLR 30 25 75% 36 76.17 0.0
01 19:15 Calm 16.09 Fair CLR 31 25 70% 38 76.17 0.0
01 18:55 E 7 16.09 Fair CLR 30 25 75% 36 76.17 0.0
01 18:35 Calm 16.09 Fair CLR 31 25 70% 38 76.17 0.0
01 18:15 N 7 16.09 Fair CLR 33 23 56% 38 76.17 0.0
01 17:55 N 11 16.09 Partly Cloudy SCT100 33 23 56% 38 76.17 0.0
01 17:35 NW 7 16.09 Partly Cloudy SCT100 34 23 53% 39 76.17 0.0
01 17:15 Calm 16.09 Fair CLR 33 22 52% 37 76.17 0.0
01 16:55 NW 6 16.09 Partly Cloudy SCT075 33 22 52% 37 76.17 0.0
01 16:35 N 7 16.09 Mostly Cloudy BKN075 35 23 50% 41 76.17 0.0
01 16:15 NW 6 16.09 Mostly Cloudy BKN075 35 23 50% 41 76.17 0.0
01 15:55 N 6 16.09 Partly Cloudy SCT075 35 23 50% 41 76.2 0.0
01 15:35 SW 6 16.09 Mostly Cloudy BKN075 35 23 50% 41 76.2 0.0
01 15:15 NW 7 16.09 Partly Cloudy SCT075 35 24 53% 42 76.23 0.0
01 14:35 W 9 16.09 Mostly Cloudy SCT070 BKN085 35 23 50% 41 76.25 0.0
01 14:15 W 7 16.09 Partly Cloudy SCT070 SCT085 35 23 50% 41 76.25 0.0
01 13:55 NW 11 16.09 Mostly Cloudy BKN070 BKN080 33 23 56% 38 76.25 0.0
01 13:35 Calm 16.09 Mostly Cloudy BKN070 33 23 56% 38 76.25 0.0
01 13:15 W 9 16.09 Partly Cloudy SCT050 33 25 63% 41 76.28 0.0
01 12:55 S 6 16.09 Partly Cloudy SCT050 SCT070 33 25 63% 41 76.3 0.0
01 12:35 SW 7 16.09 Partly Cloudy SCT050 32 26 71% 41 76.3 0.0
01 12:15 Calm 16.09 Fair CLR 32 26 71% 41 76.33 0.0
01 11:55 S 6 16.09 Fair CLR 32 26 71% 41 76.35 0.0
01 11:35 S 6 16.09 Fair CLR 31 26 75% 39 76.4 0.0
01 11:15 S 6 16.09 Fair CLR 30 26 79% 37 76.4 0.0
01 10:55 SW 6 16.09 Fair CLR 30 25 75% 36 76.4 0.0
Date Time (edt) Wind (kph) Vis. (km) Weather Sky Cond. Air Dwpt Max. Min. Relative Humidity Wind Chill (°C) Heat Index (°C) altimeter (cm) sea level (mb) 1 hr 3 hr 6 hr
6 hour
Temperature (ºC) Pressure Precipitation (cm)